sensor_id;sensor_type;location;lat;lon;timestamp;pressure;altitude;pressure_sealevel;temperature;humidity
5755;BME280;2902;42.130;24.732;2023-01-20T00:01:42;98367.09;;;16.65;47.31
5755;BME280;2902;42.130;24.732;2023-01-20T00:04:11;98360.09;;;16.54;46.75
5755;BME280;2902;42.130;24.732;2023-01-20T00:06:37;98380.06;;;16.88;44.85
5755;BME280;2902;42.130;24.732;2023-01-20T00:09:05;98402.09;;;16.95;45.08
5755;BME280;2902;42.130;24.732;2023-01-20T00:11:32;98392.44;;;17.04;45.30
5755;BME280;2902;42.130;24.732;2023-01-20T00:14:00;98374.75;;;17.08;44.74
5755;BME280;2902;42.130;24.732;2023-01-20T00:16:29;98346.84;;;17.14;44.11
5755;BME280;2902;42.130;24.732;2023-01-20T00:18:56;98350.09;;;17.16;43.78
5755;BME280;2902;42.130;24.732;2023-01-20T00:21:23;98370.22;;;17.23;43.19
5755;BME280;2902;42.130;24.732;2023-01-20T00:23:50;98391.97;;;17.32;43.04
5755;BME280;2902;42.130;24.732;2023-01-20T00:26:18;98425.53;;;17.39;43.36
5755;BME280;2902;42.130;24.732;2023-01-20T00:28:45;98421.81;;;17.40;43.35
5755;BME280;2902;42.130;24.732;2023-01-20T00:31:14;98423.66;;;17.35;44.34
5755;BME280;2902;42.130;24.732;2023-01-20T00:33:43;98417.69;;;17.13;45.60
5755;BME280;2902;42.130;24.732;2023-01-20T00:36:10;98390.59;;;17.19;45.71
5755;BME280;2902;42.130;24.732;2023-01-20T00:38:37;98405.34;;;17.17;44.75
5755;BME280;2902;42.130;24.732;2023-01-20T00:41:05;98349.81;;;17.12;46.02
5755;BME280;2902;42.130;24.732;2023-01-20T00:43:31;98372.63;;;17.15;45.44
5755;BME280;2902;42.130;24.732;2023-01-20T00:45:58;98395.44;;;17.17;45.55
5755;BME280;2902;42.130;24.732;2023-01-20T00:48:25;98393.78;;;17.11;46.57
5755;BME280;2902;42.130;24.732;2023-01-20T00:50:53;98379.03;;;17.14;46.61
5755;BME280;2902;42.130;24.732;2023-01-20T00:53:20;98401.00;;;17.01;45.15
5755;BME280;2902;42.130;24.732;2023-01-20T00:55:47;98392.19;;;17.10;45.77
5755;BME280;2902;42.130;24.732;2023-01-20T00:58:13;98401.59;;;17.13;45.93
5755;BME280;2902;42.130;24.732;2023-01-20T01:00:40;98443.19;;;17.10;46.21
5755;BME280;2902;42.130;24.732;2023-01-20T01:03:07;98440.75;;;17.14;46.07
5755;BME280;2902;42.130;24.732;2023-01-20T01:05:35;98428.44;;;17.18;45.92
5755;BME280;2902;42.130;24.732;2023-01-20T01:08:03;98431.69;;;17.20;43.75
5755;BME280;2902;42.130;24.732;2023-01-20T01:10:30;98468.19;;;17.26;43.73
5755;BME280;2902;42.130;24.732;2023-01-20T01:12:57;98489.69;;;17.36;44.32
5755;BME280;2902;42.130;24.732;2023-01-20T01:15:24;98504.19;;;17.35;45.65
5755;BME280;2902;42.130;24.732;2023-01-20T01:17:51;98498.25;;;17.23;46.31
5755;BME280;2902;42.130;24.732;2023-01-20T01:20:18;98517.22;;;17.11;45.74
5755;BME280;2902;42.130;24.732;2023-01-20T01:22:45;98522.66;;;17.16;46.11
5755;BME280;2902;42.130;24.732;2023-01-20T01:25:13;98507.84;;;17.14;46.48
5755;BME280;2902;42.130;24.732;2023-01-20T01:27:40;98496.25;;;17.03;46.18
5755;BME280;2902;42.130;24.732;2023-01-20T01:30:07;98487.94;;;16.95;45.82
5755;BME280;2902;42.130;24.732;2023-01-20T01:32:34;98494.28;;;16.79;45.97
5755;BME280;2902;42.130;24.732;2023-01-20T01:35:01;98516.72;;;16.68;47.04
5755;BME280;2902;42.130;24.732;2023-01-20T01:37:28;98531.84;;;16.84;46.62
5755;BME280;2902;42.130;24.732;2023-01-20T01:39:54;98537.69;;;16.76;46.30
5755;BME280;2902;42.130;24.732;2023-01-20T01:42:24;98539.91;;;16.84;46.49
5755;BME280;2902;42.130;24.732;2023-01-20T01:45:28;98515.03;;;17.03;46.16
5755;BME280;2902;42.130;24.732;2023-01-20T01:48:02;98489.53;;;17.01;47.04
5755;BME280;2902;42.130;24.732;2023-01-20T01:50:36;98469.41;;;16.98;47.63
5755;BME280;2902;42.130;24.732;2023-01-20T01:53:04;98483.59;;;16.89;48.27
5755;BME280;2902;42.130;24.732;2023-01-20T01:55:36;98497.50;;;16.81;48.39
5755;BME280;2902;42.130;24.732;2023-01-20T01:58:07;98484.25;;;16.59;49.15
5755;BME280;2902;42.130;24.732;2023-01-20T02:00:36;98472.69;;;16.59;49.65
5755;BME280;2902;42.130;24.732;2023-01-20T02:03:04;98474.69;;;16.37;52.90
5755;BME280;2902;42.130;24.732;2023-01-20T02:05:32;98464.13;;;16.25;55.12
5755;BME280;2902;42.130;24.732;2023-01-20T02:07:59;98481.28;;;15.93;57.59
5755;BME280;2902;42.130;24.732;2023-01-20T02:10:26;98491.06;;;15.77;57.78
5755;BME280;2902;42.130;24.732;2023-01-20T02:12:53;98482.50;;;15.53;59.07
5755;BME280;2902;42.130;24.732;2023-01-20T02:15:26;98488.88;;;15.26;60.43
5755;BME280;2902;42.130;24.732;2023-01-20T02:18:10;98493.47;;;15.09;62.12
5755;BME280;2902;42.130;24.732;2023-01-20T02:20:53;98488.81;;;14.99;63.30
5755;BME280;2902;42.130;24.732;2023-01-20T02:26:46;98475.59;;;14.71;65.15
5755;BME280;2902;42.130;24.732;2023-01-20T02:29:43;98470.53;;;14.53;65.36
5755;BME280;2902;42.130;24.732;2023-01-20T02:32:25;98482.25;;;14.31;66.50
5755;BME280;2902;42.130;24.732;2023-01-20T02:34:58;98473.06;;;14.10;68.50
5755;BME280;2902;42.130;24.732;2023-01-20T02:37:29;98475.16;;;14.08;69.62
5755;BME280;2902;42.130;24.732;2023-01-20T02:40:12;98501.41;;;14.11;69.77
5755;BME280;2902;42.130;24.732;2023-01-20T02:42:45;98490.13;;;14.09;70.27
5755;BME280;2902;42.130;24.732;2023-01-20T02:45:16;98478.75;;;14.14;70.97
5755;BME280;2902;42.130;24.732;2023-01-20T02:47:51;98485.13;;;13.96;71.88
5755;BME280;2902;42.130;24.732;2023-01-20T02:50:27;98501.13;;;13.96;72.72
5755;BME280;2902;42.130;24.732;2023-01-20T02:52:57;98481.16;;;13.82;73.47
5755;BME280;2902;42.130;24.732;2023-01-20T02:55:33;98456.00;;;13.78;73.92
5755;BME280;2902;42.130;24.732;2023-01-20T02:58:04;98462.94;;;13.79;73.71
5755;BME280;2902;42.130;24.732;2023-01-20T03:00:35;98485.59;;;13.77;74.18
5755;BME280;2902;42.130;24.732;2023-01-20T03:03:08;98470.22;;;13.67;74.14
5755;BME280;2902;42.130;24.732;2023-01-20T03:05:40;98500.19;;;13.58;74.47
5755;BME280;2902;42.130;24.732;2023-01-20T03:08:09;98521.19;;;13.54;74.40
5755;BME280;2902;42.130;24.732;2023-01-20T03:10:39;98519.22;;;13.61;74.32
5755;BME280;2902;42.130;24.732;2023-01-20T03:13:12;98494.59;;;13.59;74.58
5755;BME280;2902;42.130;24.732;2023-01-20T03:15:48;98523.03;;;13.65;74.78
5755;BME280;2902;42.130;24.732;2023-01-20T03:18:19;98531.34;;;13.69;74.28
5755;BME280;2902;42.130;24.732;2023-01-20T03:20:45;98484.03;;;13.64;74.87
5755;BME280;2902;42.130;24.732;2023-01-20T03:23:12;98464.94;;;13.56;75.35
5755;BME280;2902;42.130;24.732;2023-01-20T03:25:39;98478.84;;;13.58;75.03
5755;BME280;2902;42.130;24.732;2023-01-20T03:28:06;98507.47;;;13.62;74.93
5755;BME280;2902;42.130;24.732;2023-01-20T03:30:33;98515.03;;;13.65;75.33
5755;BME280;2902;42.130;24.732;2023-01-20T03:33:00;98500.53;;;13.61;75.79
5755;BME280;2902;42.130;24.732;2023-01-20T03:35:28;98488.06;;;13.67;75.88
5755;BME280;2902;42.130;24.732;2023-01-20T03:37:56;98510.38;;;13.61;76.03
5755;BME280;2902;42.130;24.732;2023-01-20T03:40:23;98491.78;;;13.49;76.92
5755;BME280;2902;42.130;24.732;2023-01-20T03:42:57;98479.22;;;13.50;77.13
5755;BME280;2902;42.130;24.732;2023-01-20T03:45:31;98478.03;;;13.57;77.01
5755;BME280;2902;42.130;24.732;2023-01-20T03:48:07;98485.00;;;13.58;76.83
5755;BME280;2902;42.130;24.732;2023-01-20T03:50:43;98484.75;;;13.60;76.88
5755;BME280;2902;42.130;24.732;2023-01-20T03:53:20;98465.56;;;13.63;76.61
5755;BME280;2902;42.130;24.732;2023-01-20T03:55:53;98453.28;;;13.62;76.85
5755;BME280;2902;42.130;24.732;2023-01-20T03:58:27;98465.72;;;13.56;76.53
5755;BME280;2902;42.130;24.732;2023-01-20T04:00:55;98459.44;;;13.62;76.48
5755;BME280;2902;42.130;24.732;2023-01-20T04:03:25;98461.22;;;13.57;76.25
5755;BME280;2902;42.130;24.732;2023-01-20T04:05:57;98458.22;;;13.53;76.65
5755;BME280;2902;42.130;24.732;2023-01-20T04:08:32;98448.50;;;13.19;77.24
5755;BME280;2902;42.130;24.732;2023-01-20T04:11:02;98464.56;;;12.96;78.26
5755;BME280;2902;42.130;24.732;2023-01-20T04:13:30;98469.44;;;12.88;79.15
5755;BME280;2902;42.130;24.732;2023-01-20T04:15:58;98479.53;;;12.97;78.86
5755;BME280;2902;42.130;24.732;2023-01-20T04:18:26;98498.97;;;13.09;78.36
5755;BME280;2902;42.130;24.732;2023-01-20T04:20:57;98468.00;;;13.20;77.73
5755;BME280;2902;42.130;24.732;2023-01-20T04:23:30;98450.16;;;13.20;77.37
5755;BME280;2902;42.130;24.732;2023-01-20T04:25:58;98427.00;;;13.09;77.35
5755;BME280;2902;42.130;24.732;2023-01-20T04:28:24;98438.22;;;13.11;77.60
5755;BME280;2902;42.130;24.732;2023-01-20T04:30:51;98413.28;;;13.17;77.76
5755;BME280;2902;42.130;24.732;2023-01-20T04:33:18;98412.41;;;13.28;77.39
5755;BME280;2902;42.130;24.732;2023-01-20T04:35:44;98416.72;;;13.29;77.17
5755;BME280;2902;42.130;24.732;2023-01-20T04:38:12;98417.84;;;13.33;76.78
5755;BME280;2902;42.130;24.732;2023-01-20T04:40:39;98410.88;;;13.32;76.45
5755;BME280;2902;42.130;24.732;2023-01-20T04:43:06;98399.88;;;13.29;76.83
5755;BME280;2902;42.130;24.732;2023-01-20T04:45:34;98422.50;;;13.26;76.78
5755;BME280;2902;42.130;24.732;2023-01-20T04:48:04;98434.56;;;13.29;76.65
5755;BME280;2902;42.130;24.732;2023-01-20T04:50:31;98439.97;;;13.34;76.62
5755;BME280;2902;42.130;24.732;2023-01-20T04:52:58;98438.59;;;13.31;76.23
5755;BME280;2902;42.130;24.732;2023-01-20T04:55:26;98407.81;;;13.24;76.62
5755;BME280;2902;42.130;24.732;2023-01-20T04:57:53;98389.13;;;12.96;77.41
5755;BME280;2902;42.130;24.732;2023-01-20T05:00:20;98384.16;;;12.88;78.20
5755;BME280;2902;42.130;24.732;2023-01-20T05:02:47;98383.78;;;12.96;78.02
5755;BME280;2902;42.130;24.732;2023-01-20T05:05:13;98365.47;;;12.99;77.29
5755;BME280;2902;42.130;24.732;2023-01-20T05:07:40;98360.59;;;13.08;77.02
5755;BME280;2902;42.130;24.732;2023-01-20T05:10:08;98364.94;;;13.14;76.48
5755;BME280;2902;42.130;24.732;2023-01-20T05:12:36;98361.56;;;13.18;76.41
5755;BME280;2902;42.130;24.732;2023-01-20T05:15:04;98356.31;;;13.23;76.26
5755;BME280;2902;42.130;24.732;2023-01-20T05:17:30;98358.50;;;13.26;76.33
5755;BME280;2902;42.130;24.732;2023-01-20T05:19:57;98374.75;;;13.25;76.06
5755;BME280;2902;42.130;24.732;2023-01-20T05:22:24;98389.69;;;13.09;77.20
5755;BME280;2902;42.130;24.732;2023-01-20T05:24:50;98366.66;;;12.92;77.73
5755;BME280;2902;42.130;24.732;2023-01-20T05:27:17;98347.22;;;12.80;78.22
5755;BME280;2902;42.130;24.732;2023-01-20T05:29:45;98343.88;;;12.84;78.34
5755;BME280;2902;42.130;24.732;2023-01-20T05:32:12;98344.16;;;12.71;78.99
5755;BME280;2902;42.130;24.732;2023-01-20T05:34:38;98341.91;;;12.80;78.44
5755;BME280;2902;42.130;24.732;2023-01-20T05:37:05;98334.22;;;12.83;78.47
5755;BME280;2902;42.130;24.732;2023-01-20T05:39:32;98320.78;;;12.90;78.25
5755;BME280;2902;42.130;24.732;2023-01-20T05:41:59;98315.69;;;12.88;78.28
5755;BME280;2902;42.130;24.732;2023-01-20T05:44:26;98317.84;;;12.91;77.58
5755;BME280;2902;42.130;24.732;2023-01-20T05:46:54;98316.16;;;12.85;78.28
5755;BME280;2902;42.130;24.732;2023-01-20T05:49:20;98295.47;;;12.76;78.78
5755;BME280;2902;42.130;24.732;2023-01-20T05:51:47;98289.22;;;12.70;81.30
5755;BME280;2902;42.130;24.732;2023-01-20T05:54:14;98316.41;;;12.84;82.94
5755;BME280;2902;42.130;24.732;2023-01-20T05:56:40;98332.38;;;12.84;79.74
5755;BME280;2902;42.130;24.732;2023-01-20T05:59:07;98337.56;;;12.62;80.52
5755;BME280;2902;42.130;24.732;2023-01-20T06:01:34;98321.56;;;12.90;86.94
5755;BME280;2902;42.130;24.732;2023-01-20T06:04:02;98338.28;;;12.97;81.90
5755;BME280;2902;42.130;24.732;2023-01-20T06:06:29;98319.56;;;13.25;90.36
5755;BME280;2902;42.130;24.732;2023-01-20T06:08:55;98316.88;;;13.09;80.43
5755;BME280;2902;42.130;24.732;2023-01-20T06:11:22;98309.78;;;12.98;79.84
5755;BME280;2902;42.130;24.732;2023-01-20T06:13:49;98294.38;;;12.88;79.11
5755;BME280;2902;42.130;24.732;2023-01-20T06:16:16;98282.50;;;12.96;80.51
5755;BME280;2902;42.130;24.732;2023-01-20T06:18:44;98263.91;;;13.12;79.81
5755;BME280;2902;42.130;24.732;2023-01-20T06:21:12;98264.13;;;13.27;79.11
5755;BME280;2902;42.130;24.732;2023-01-20T06:23:38;98293.63;;;13.37;78.49
5755;BME280;2902;42.130;24.732;2023-01-20T06:26:07;98275.38;;;13.29;77.75
5755;BME280;2902;42.130;24.732;2023-01-20T06:28:34;98282.56;;;13.29;77.97
5755;BME280;2902;42.130;24.732;2023-01-20T06:31:02;98304.84;;;13.39;78.62
5755;BME280;2902;42.130;24.732;2023-01-20T06:33:29;98283.34;;;13.46;77.34
5755;BME280;2902;42.130;24.732;2023-01-20T06:35:57;98287.25;;;13.38;77.22
5755;BME280;2902;42.130;24.732;2023-01-20T06:38:27;98295.66;;;13.30;78.24
5755;BME280;2902;42.130;24.732;2023-01-20T06:40:58;98323.59;;;13.44;78.62
5755;BME280;2902;42.130;24.732;2023-01-20T06:43:25;98308.72;;;13.48;78.50
5755;BME280;2902;42.130;24.732;2023-01-20T06:45:57;98320.53;;;13.52;77.95
5755;BME280;2902;42.130;24.732;2023-01-20T06:48:24;98310.28;;;13.61;77.30
5755;BME280;2902;42.130;24.732;2023-01-20T06:50:51;98312.47;;;13.64;77.42
5755;BME280;2902;42.130;24.732;2023-01-20T06:53:17;98316.81;;;13.86;76.91
5755;BME280;2902;42.130;24.732;2023-01-20T06:55:53;98307.56;;;13.77;76.06
5755;BME280;2902;42.130;24.732;2023-01-20T06:58:22;98292.41;;;13.45;77.60
5755;BME280;2902;42.130;24.732;2023-01-20T07:00:48;98283.28;;;13.57;76.01
5755;BME280;2902;42.130;24.732;2023-01-20T07:03:15;98291.75;;;13.54;75.78
5755;BME280;2902;42.130;24.732;2023-01-20T07:05:42;98285.94;;;13.57;75.46
5755;BME280;2902;42.130;24.732;2023-01-20T07:08:08;98289.31;;;13.69;76.75
5755;BME280;2902;42.130;24.732;2023-01-20T07:10:35;98267.75;;;13.92;76.44
5755;BME280;2902;42.130;24.732;2023-01-20T07:13:04;98268.03;;;14.12;75.62
5755;BME280;2902;42.130;24.732;2023-01-20T07:15:30;98281.50;;;14.22;74.72
5755;BME280;2902;42.130;24.732;2023-01-20T07:17:57;98287.19;;;14.09;73.73
5755;BME280;2902;42.130;24.732;2023-01-20T07:20:24;98279.81;;;14.16;74.50
5755;BME280;2902;42.130;24.732;2023-01-20T07:22:50;98279.50;;;14.13;74.99
5755;BME280;2902;42.130;24.732;2023-01-20T07:25:17;98310.47;;;13.92;74.71
5755;BME280;2902;42.130;24.732;2023-01-20T07:27:44;98330.97;;;13.70;75.70
5755;BME280;2902;42.130;24.732;2023-01-20T07:30:12;98326.13;;;13.34;77.31
5755;BME280;2902;42.130;24.732;2023-01-20T07:32:39;98315.53;;;13.23;79.37
5755;BME280;2902;42.130;24.732;2023-01-20T07:35:20;98341.28;;;13.17;79.30
5755;BME280;2902;42.130;24.732;2023-01-20T07:37:47;98307.09;;;12.86;80.27
5755;BME280;2902;42.130;24.732;2023-01-20T07:40:14;98314.63;;;12.89;80.86
5755;BME280;2902;42.130;24.732;2023-01-20T07:42:41;98343.47;;;12.92;80.68
5755;BME280;2902;42.130;24.732;2023-01-20T07:45:08;98338.44;;;12.79;81.70
5755;BME280;2902;42.130;24.732;2023-01-20T07:47:36;98317.50;;;12.71;82.21
5755;BME280;2902;42.130;24.732;2023-01-20T07:50:03;98341.28;;;12.89;82.24
5755;BME280;2902;42.130;24.732;2023-01-20T07:52:30;98349.84;;;12.91;82.30
5755;BME280;2902;42.130;24.732;2023-01-20T07:54:57;98380.06;;;12.97;81.84
5755;BME280;2902;42.130;24.732;2023-01-20T07:57:23;98385.34;;;12.80;82.71
5755;BME280;2902;42.130;24.732;2023-01-20T07:59:50;98434.59;;;12.78;83.78
5755;BME280;2902;42.130;24.732;2023-01-20T08:02:17;98477.38;;;12.48;86.02
5755;BME280;2902;42.130;24.732;2023-01-20T08:04:45;98492.28;;;12.15;87.62
5755;BME280;2902;42.130;24.732;2023-01-20T08:07:11;98504.03;;;11.73;91.50
5755;BME280;2902;42.130;24.732;2023-01-20T08:09:38;98504.84;;;11.55;94.36
5755;BME280;2902;42.130;24.732;2023-01-20T08:12:06;98514.38;;;11.33;97.43
5755;BME280;2902;42.130;24.732;2023-01-20T08:14:32;98524.44;;;11.13;100.00
5755;BME280;2902;42.130;24.732;2023-01-20T08:16:59;98516.34;;;11.08;100.00
5755;BME280;2902;42.130;24.732;2023-01-20T08:19:27;98525.03;;;10.79;100.00
5755;BME280;2902;42.130;24.732;2023-01-20T08:21:55;98521.41;;;10.91;100.00
5755;BME280;2902;42.130;24.732;2023-01-20T08:24:22;98516.50;;;10.95;100.00
5755;BME280;2902;42.130;24.732;2023-01-20T08:26:49;98502.97;;;10.96;100.00
5755;BME280;2902;42.130;24.732;2023-01-20T08:29:16;98498.53;;;11.08;100.00
5755;BME280;2902;42.130;24.732;2023-01-20T08:31:43;98495.72;;;11.22;100.00
5755;BME280;2902;42.130;24.732;2023-01-20T08:34:10;98481.44;;;11.34;100.00
5755;BME280;2902;42.130;24.732;2023-01-20T08:36:38;98470.38;;;11.49;100.00
5755;BME280;2902;42.130;24.732;2023-01-20T08:39:09;98469.09;;;11.69;100.00
5755;BME280;2902;42.130;24.732;2023-01-20T08:41:37;98475.47;;;11.80;99.79
5755;BME280;2902;42.130;24.732;2023-01-20T08:44:06;98490.19;;;11.94;99.20
5755;BME280;2902;42.130;24.732;2023-01-20T08:46:33;98505.72;;;12.08;98.72
5755;BME280;2902;42.130;24.732;2023-01-20T08:49:05;98509.09;;;12.15;98.34
5755;BME280;2902;42.130;24.732;2023-01-20T08:51:32;98504.00;;;12.25;98.13
5755;BME280;2902;42.130;24.732;2023-01-20T08:53:59;98495.81;;;12.38;98.05
5755;BME280;2902;42.130;24.732;2023-01-20T08:56:28;98487.34;;;12.41;97.63
5755;BME280;2902;42.130;24.732;2023-01-20T08:58:55;98455.03;;;12.38;97.40
5755;BME280;2902;42.130;24.732;2023-01-20T09:01:24;98428.28;;;12.44;97.40
5755;BME280;2902;42.130;24.732;2023-01-20T09:03:52;98405.47;;;12.48;96.86
5755;BME280;2902;42.130;24.732;2023-01-20T09:06:19;98430.34;;;12.65;95.69
5755;BME280;2902;42.130;24.732;2023-01-20T09:08:47;98418.38;;;12.79;95.96
5755;BME280;2902;42.130;24.732;2023-01-20T09:11:17;98405.09;;;12.96;93.87
5755;BME280;2902;42.130;24.732;2023-01-20T09:13:45;98383.06;;;13.12;92.69
5755;BME280;2902;42.130;24.732;2023-01-20T09:16:13;98384.34;;;13.26;92.02
5755;BME280;2902;42.130;24.732;2023-01-20T09:18:41;98358.94;;;13.35;90.95
5755;BME280;2902;42.130;24.732;2023-01-20T09:21:08;98361.72;;;13.28;79.72
5755;BME280;2902;42.130;24.732;2023-01-20T09:23:37;98331.84;;;13.26;76.64
5755;BME280;2902;42.130;24.732;2023-01-20T09:26:06;98293.47;;;13.27;75.86
5755;BME280;2902;42.130;24.732;2023-01-20T09:28:32;98295.38;;;13.48;74.17
5755;BME280;2902;42.130;24.732;2023-01-20T09:31:02;98291.34;;;13.62;73.77
5755;BME280;2902;42.130;24.732;2023-01-20T09:33:30;98263.53;;;13.96;74.31
5755;BME280;2902;42.130;24.732;2023-01-20T09:35:58;98250.75;;;13.98;73.03
5755;BME280;2902;42.130;24.732;2023-01-20T09:38:25;98240.47;;;14.28;71.98
5755;BME280;2902;42.130;24.732;2023-01-20T09:41:16;98214.38;;;14.62;70.74
5755;BME280;2902;42.130;24.732;2023-01-20T09:44:08;98211.00;;;15.03;69.64
5755;BME280;2902;42.130;24.732;2023-01-20T09:46:47;98232.50;;;15.49;66.12
5755;BME280;2902;42.130;24.732;2023-01-20T09:49:43;98224.47;;;15.49;65.92
5755;BME280;2902;42.130;24.732;2023-01-20T09:52:32;98228.44;;;15.83;65.18
5755;BME280;2902;42.130;24.732;2023-01-20T09:55:22;98240.84;;;16.05;65.53
5755;BME280;2902;42.130;24.732;2023-01-20T09:57:57;98246.84;;;16.32;64.12
5755;BME280;2902;42.130;24.732;2023-01-20T10:00:28;98234.09;;;16.54;62.52
5755;BME280;2902;42.130;24.732;2023-01-20T10:03:03;98249.56;;;16.37;61.17
5755;BME280;2902;42.130;24.732;2023-01-20T10:05:36;98223.38;;;16.54;60.21
5755;BME280;2902;42.130;24.732;2023-01-20T10:08:06;98215.31;;;16.59;59.59
5755;BME280;2902;42.130;24.732;2023-01-20T10:10:39;98207.78;;;16.41;59.15
5755;BME280;2902;42.130;24.732;2023-01-20T10:13:12;98181.47;;;16.38;58.72
5755;BME280;2902;42.130;24.732;2023-01-20T10:15:44;98206.63;;;16.27;57.54
5755;BME280;2902;42.130;24.732;2023-01-20T10:18:15;98196.97;;;16.16;59.00
5755;BME280;2902;42.130;24.732;2023-01-20T10:20:47;98195.22;;;15.84;57.98
5755;BME280;2902;42.130;24.732;2023-01-20T10:23:19;98188.78;;;15.75;60.31
5755;BME280;2902;42.130;24.732;2023-01-20T10:25:51;98183.50;;;15.96;62.09
5755;BME280;2902;42.130;24.732;2023-01-20T10:28:25;98185.59;;;15.83;64.59
5755;BME280;2902;42.130;24.732;2023-01-20T10:30:54;98198.31;;;16.18;65.22
5755;BME280;2902;42.130;24.732;2023-01-20T10:33:27;98198.59;;;16.32;65.11
5755;BME280;2902;42.130;24.732;2023-01-20T10:35:57;98199.41;;;16.32;68.75
5755;BME280;2902;42.130;24.732;2023-01-20T10:38:32;98187.34;;;16.25;71.54
5755;BME280;2902;42.130;24.732;2023-01-20T10:41:03;98184.28;;;15.96;70.31
5755;BME280;2902;42.130;24.732;2023-01-20T10:43:32;98178.66;;;15.88;72.00
5755;BME280;2902;42.130;24.732;2023-01-20T10:46:09;98170.06;;;15.90;70.78
5755;BME280;2902;42.130;24.732;2023-01-20T10:48:53;98184.59;;;16.00;69.21
5755;BME280;2902;42.130;24.732;2023-01-20T10:51:28;98177.59;;;15.98;65.37
5755;BME280;2902;42.130;24.732;2023-01-20T10:54:02;98204.69;;;16.02;63.53
5755;BME280;2902;42.130;24.732;2023-01-20T10:56:36;98210.59;;;16.09;64.14
5755;BME280;2902;42.130;24.732;2023-01-20T10:59:11;98192.13;;;16.08;63.87
5755;BME280;2902;42.130;24.732;2023-01-20T11:01:38;98184.34;;;16.06;64.99
5755;BME280;2902;42.130;24.732;2023-01-20T11:04:14;98164.28;;;16.14;64.19
5755;BME280;2902;42.130;24.732;2023-01-20T11:06:42;98162.16;;;16.16;64.53
5755;BME280;2902;42.130;24.732;2023-01-20T11:09:19;98157.81;;;16.10;65.40
5755;BME280;2902;42.130;24.732;2023-01-20T11:11:47;98167.97;;;15.98;65.82
5755;BME280;2902;42.130;24.732;2023-01-20T11:14:14;98159.31;;;15.70;67.76
5755;BME280;2902;42.130;24.732;2023-01-20T11:16:41;98134.03;;;15.46;69.00
5755;BME280;2902;42.130;24.732;2023-01-20T11:19:12;98145.56;;;15.57;67.68
5755;BME280;2902;42.130;24.732;2023-01-20T11:21:39;98150.69;;;15.58;68.39
5755;BME280;2902;42.130;24.732;2023-01-20T11:24:27;98155.81;;;15.28;69.84
5755;BME280;2902;42.130;24.732;2023-01-20T11:27:02;98149.84;;;15.16;70.54
5755;BME280;2902;42.130;24.732;2023-01-20T11:29:31;98142.31;;;15.08;71.85
5755;BME280;2902;42.130;24.732;2023-01-20T11:32:00;98136.94;;;15.08;73.93
5755;BME280;2902;42.130;24.732;2023-01-20T11:34:29;98125.34;;;14.93;72.68
5755;BME280;2902;42.130;24.732;2023-01-20T11:37:16;98112.69;;;14.78;71.12
5755;BME280;2902;42.130;24.732;2023-01-20T11:39:52;98105.22;;;14.80;69.45
5755;BME280;2902;42.130;24.732;2023-01-20T11:42:23;98110.88;;;14.84;68.08
5755;BME280;2902;42.130;24.732;2023-01-20T11:44:52;98133.19;;;14.68;68.14
5755;BME280;2902;42.130;24.732;2023-01-20T11:47:24;98107.19;;;14.58;68.55
5755;BME280;2902;42.130;24.732;2023-01-20T11:50:27;98099.72;;;14.60;70.19
5755;BME280;2902;42.130;24.732;2023-01-20T11:53:12;98087.28;;;14.39;70.35
5755;BME280;2902;42.130;24.732;2023-01-20T11:55:45;98081.31;;;14.32;71.40
5755;BME280;2902;42.130;24.732;2023-01-20T11:58:17;98068.63;;;14.49;71.54
5755;BME280;2902;42.130;24.732;2023-01-20T12:00:44;98075.09;;;14.53;71.61
5755;BME280;2902;42.130;24.732;2023-01-20T12:03:42;98085.16;;;14.46;71.15
5755;BME280;2902;42.130;24.732;2023-01-20T12:06:16;98051.91;;;14.27;72.37
5755;BME280;2902;42.130;24.732;2023-01-20T12:08:47;98071.78;;;14.41;71.32
5755;BME280;2902;42.130;24.732;2023-01-20T12:11:19;98098.53;;;14.46;71.52
5755;BME280;2902;42.130;24.732;2023-01-20T12:14:01;98103.34;;;14.44;71.53
5755;BME280;2902;42.130;24.732;2023-01-20T12:17:02;98097.78;;;14.51;71.39
5755;BME280;2902;42.130;24.732;2023-01-20T12:19:36;98107.31;;;14.42;71.82
5755;BME280;2902;42.130;24.732;2023-01-20T12:22:12;98106.00;;;14.44;71.69
5755;BME280;2902;42.130;24.732;2023-01-20T12:24:49;98098.00;;;14.44;72.66
5755;BME280;2902;42.130;24.732;2023-01-20T12:27:39;98091.09;;;14.48;71.67
5755;BME280;2902;42.130;24.732;2023-01-20T12:30:28;98094.44;;;14.70;71.47
5755;BME280;2902;42.130;24.732;2023-01-20T12:32:57;98082.22;;;14.79;71.88
5755;BME280;2902;42.130;24.732;2023-01-20T12:35:26;98084.97;;;14.89;71.38
5755;BME280;2902;42.130;24.732;2023-01-20T12:37:57;98085.28;;;14.98;71.93
5755;BME280;2902;42.130;24.732;2023-01-20T12:40:32;98074.84;;;14.96;71.55
5755;BME280;2902;42.130;24.732;2023-01-20T12:43:17;98086.69;;;15.10;71.14
5755;BME280;2902;42.130;24.732;2023-01-20T12:46:14;98090.81;;;15.28;71.23
5755;BME280;2902;42.130;24.732;2023-01-20T12:48:53;98100.81;;;15.42;71.07
5755;BME280;2902;42.130;24.732;2023-01-20T12:51:36;98112.06;;;15.44;69.52
5755;BME280;2902;42.130;24.732;2023-01-20T12:54:31;98131.66;;;15.60;68.88
5755;BME280;2902;42.130;24.732;2023-01-20T12:57:07;98144.28;;;15.69;67.84
5755;BME280;2902;42.130;24.732;2023-01-20T12:59:45;98149.41;;;15.76;68.05
5755;BME280;2902;42.130;24.732;2023-01-20T13:02:36;98130.34;;;15.62;68.21
5755;BME280;2902;42.130;24.732;2023-01-20T13:05:27;98133.03;;;15.67;68.62
5755;BME280;2902;42.130;24.732;2023-01-20T13:08:07;98135.16;;;15.60;67.92
5755;BME280;2902;42.130;24.732;2023-01-20T13:10:50;98128.28;;;15.28;69.60
5755;BME280;2902;42.130;24.732;2023-01-20T13:13:29;98117.50;;;15.18;70.61
5755;BME280;2902;42.130;24.732;2023-01-20T13:16:12;98114.03;;;15.17;70.89
5755;BME280;2902;42.130;24.732;2023-01-20T13:18:52;98114.25;;;15.11;72.14
5755;BME280;2902;42.130;24.732;2023-01-20T13:21:24;98109.16;;;15.09;73.10
5755;BME280;2902;42.130;24.732;2023-01-20T13:23:51;98094.94;;;14.99;72.45
5755;BME280;2902;42.130;24.732;2023-01-20T13:26:19;98089.88;;;15.07;72.35
5755;BME280;2902;42.130;24.732;2023-01-20T13:28:50;98110.69;;;15.00;71.92
5755;BME280;2902;42.130;24.732;2023-01-20T13:31:42;98111.78;;;15.04;73.66
5755;BME280;2902;42.130;24.732;2023-01-20T13:34:32;98124.03;;;14.95;74.75